createdAt,value
2022-12-22T00:00:16.976Z,100.0
2022-12-22T00:01:16.455Z,100.0
2022-12-22T00:02:17.421Z,100.0
2022-12-22T00:03:17.301Z,100.0
2022-12-22T00:04:17.220Z,100.0
2022-12-22T00:05:16.829Z,100.0
2022-12-22T00:06:17.331Z,100.0
2022-12-22T00:07:16.898Z,100.0
2022-12-22T00:08:17.460Z,100.0
2022-12-22T00:09:16.941Z,100.0
2022-12-22T00:10:17.463Z,100.0
2022-12-22T00:11:16.997Z,100.0
2022-12-22T00:12:16.996Z,100.0
2022-12-22T00:13:16.510Z,100.0
2022-12-22T00:14:17.037Z,100.0
2022-12-22T00:15:16.544Z,100.0
2022-12-22T00:16:17.172Z,100.0
2022-12-22T00:17:16.839Z,100.0
2022-12-22T00:18:17.408Z,100.0
2022-12-22T00:19:16.948Z,100.0
2022-12-22T00:20:18.962Z,100.0
2022-12-22T00:21:16.488Z,100.0
2022-12-22T00:22:17.303Z,100.0
2022-12-22T00:23:16.782Z,100.0
2022-12-22T00:24:17.291Z,100.0
2022-12-22T00:25:16.792Z,100.0
2022-12-22T00:26:17.280Z,100.0
2022-12-22T00:27:16.914Z,100.0
2022-12-22T00:28:17.500Z,100.0
2022-12-22T00:29:17.022Z,100.0
2022-12-22T00:30:16.572Z,100.0
2022-12-22T00:31:17.206Z,100.0
2022-12-22T00:32:17.193Z,100.0
2022-12-22T00:33:16.839Z,100.0
2022-12-22T00:34:17.325Z,100.0
2022-12-22T00:35:16.810Z,100.0
2022-12-22T00:36:17.291Z,100.0
2022-12-22T00:37:16.818Z,100.0
2022-12-22T00:38:17.334Z,100.0
2022-12-22T00:39:16.824Z,100.0
2022-12-22T00:40:17.345Z,100.0
2022-12-22T00:41:16.875Z,100.0
2022-12-22T00:42:16.676Z,100.0
2022-12-22T00:43:17.230Z,100.0
2022-12-22T00:44:16.753Z,100.0
2022-12-22T00:45:17.305Z,100.0
2022-12-22T00:46:16.977Z,100.0
2022-12-22T00:47:16.505Z,100.0
2022-12-22T00:48:17.029Z,100.0
2022-12-22T00:49:16.525Z,100.0
2022-12-22T00:50:17.010Z,100.0
2022-12-22T00:51:16.549Z,100.0
2022-12-22T00:52:16.550Z,100.0
2022-12-22T00:53:17.057Z,100.0
2022-12-22T00:54:16.567Z,100.0
2022-12-22T00:55:17.095Z,100.0
2022-12-22T00:56:16.618Z,100.0
2022-12-22T00:57:17.154Z,100.0
2022-12-22T00:58:16.719Z,100.0
2022-12-22T00:59:17.240Z,100.0
2022-12-22T01:00:16.750Z,100.0
2022-12-22T01:01:17.409Z,100.0
2022-12-22T01:02:17.466Z,100.0
2022-12-22T01:03:17.367Z,100.0
2022-12-22T01:04:16.877Z,100.0
2022-12-22T01:05:17.365Z,100.0
2022-12-22T01:06:16.845Z,100.0
2022-12-22T01:07:17.324Z,100.0
2022-12-22T01:08:16.826Z,100.0
2022-12-22T01:09:17.357Z,100.0
2022-12-22T01:10:16.908Z,100.0
2022-12-22T01:11:17.409Z,100.0
2022-12-22T01:12:17.002Z,100.0
2022-12-22T01:13:16.519Z,100.0
2022-12-22T01:14:17.033Z,100.0
2022-12-22T01:15:16.531Z,100.0
2022-12-22T01:16:17.121Z,100.0
2022-12-22T01:17:16.627Z,100.0
2022-12-22T01:18:17.143Z,100.0
2022-12-22T01:19:16.676Z,100.0
2022-12-22T01:20:17.171Z,100.0
2022-12-22T01:21:16.704Z,100.0
2022-12-22T01:22:17.369Z,100.0
2022-12-22T01:23:16.883Z,100.0
2022-12-22T01:24:17.384Z,100.0
2022-12-22T01:25:16.887Z,100.0
2022-12-22T01:26:17.377Z,100.0
2022-12-22T01:27:16.901Z,100.0
2022-12-22T01:28:17.440Z,100.0
2022-12-22T01:29:16.923Z,100.0
2022-12-22T01:30:17.452Z,100.0
2022-12-22T01:31:17.168Z,100.0
2022-12-22T01:32:16.744Z,100.0
2022-12-22T01:33:17.255Z,100.0
2022-12-22T01:34:16.732Z,100.0
2022-12-22T01:35:17.221Z,100.0
2022-12-22T01:36:16.700Z,100.0
2022-12-22T01:37:17.205Z,100.0
2022-12-22T01:38:16.701Z,100.0
2022-12-22T01:39:17.217Z,100.0
2022-12-22T01:40:16.793Z,100.0
2022-12-22T01:41:17.323Z,100.0
2022-12-22T01:42:16.828Z,100.0
2022-12-22T01:43:17.321Z,100.0
2022-12-22T01:44:16.811Z,100.0
2022-12-22T01:45:17.310Z,100.0
2022-12-22T01:46:16.967Z,100.0
2022-12-22T01:47:16.485Z,100.0
2022-12-22T01:48:16.971Z,100.0
2022-12-22T01:49:16.476Z,100.0
2022-12-22T01:50:16.965Z,100.0
2022-12-22T01:51:17.466Z,100.0
2022-12-22T01:52:17.337Z,100.0
2022-12-22T01:53:20.327Z,100.0
2022-12-22T01:54:16.843Z,100.0
2022-12-22T01:55:17.331Z,100.0
2022-12-22T01:56:16.885Z,100.0
2022-12-22T01:57:17.372Z,100.0
2022-12-22T01:58:16.865Z,100.0
2022-12-22T01:59:17.415Z,100.0
2022-12-22T02:00:16.924Z,100.0
2022-12-22T02:01:17.471Z,100.0
2022-12-22T02:02:17.005Z,100.0
2022-12-22T02:03:16.698Z,100.0
2022-12-22T02:04:17.252Z,100.0
2022-12-22T02:05:16.765Z,100.0
2022-12-22T02:06:17.272Z,100.0
2022-12-22T02:07:16.809Z,100.0
2022-12-22T02:08:17.363Z,100.0
2022-12-22T02:09:16.866Z,100.0
2022-12-22T02:10:17.364Z,100.0
2022-12-22T02:11:16.870Z,100.0
2022-12-22T02:12:16.549Z,100.0
2022-12-22T02:13:17.053Z,100.0
2022-12-22T02:14:16.552Z,100.0
2022-12-22T02:15:17.041Z,100.0
2022-12-22T02:16:16.641Z,100.0
2022-12-22T02:17:17.177Z,100.0
2022-12-22T02:18:16.686Z,100.0
2022-12-22T02:19:17.184Z,100.0
2022-12-22T02:20:16.700Z,100.0
2022-12-22T02:21:17.216Z,100.0
2022-12-22T02:22:16.701Z,100.0
2022-12-22T02:23:17.239Z,100.0
2022-12-22T02:24:16.716Z,100.0
2022-12-22T02:25:17.234Z,100.0
2022-12-22T02:26:16.754Z,100.0
2022-12-22T02:27:17.245Z,100.0
2022-12-22T02:28:16.748Z,100.0
2022-12-22T02:29:17.228Z,100.0
2022-12-22T02:30:16.765Z,100.0
2022-12-22T02:31:17.369Z,100.0
2022-12-22T02:32:17.159Z,100.0
2022-12-22T02:33:16.668Z,100.0
2022-12-22T02:34:17.167Z,100.0
2022-12-22T02:35:16.691Z,100.0
2022-12-22T02:36:17.264Z,100.0
2022-12-22T02:37:16.902Z,100.0
2022-12-22T02:38:17.458Z,100.0
2022-12-22T02:39:16.961Z,100.0
2022-12-22T02:40:17.443Z,100.0
2022-12-22T02:41:16.921Z,100.0
2022-12-22T02:42:16.709Z,100.0
2022-12-22T02:43:17.212Z,100.0
2022-12-22T02:44:16.718Z,100.0
2022-12-22T02:45:17.225Z,100.0
2022-12-22T02:46:16.790Z,100.0
2022-12-22T02:47:17.305Z,100.0
2022-12-22T02:48:16.812Z,100.0
2022-12-22T02:49:17.351Z,100.0
2022-12-22T02:50:16.921Z,100.0
2022-12-22T02:51:17.436Z,100.0
2022-12-22T02:52:16.870Z,100.0
2022-12-22T02:53:17.382Z,100.0
2022-12-22T02:54:17.017Z,100.0
2022-12-22T02:55:16.545Z,100.0
2022-12-22T02:56:17.085Z,100.0
2022-12-22T02:57:16.671Z,100.0
2022-12-22T02:58:17.182Z,100.0
2022-12-22T02:59:16.685Z,100.0
2022-12-22T03:00:17.329Z,100.0
2022-12-22T03:01:16.994Z,100.0
2022-12-22T03:02:17.903Z,100.0
2022-12-22T03:03:16.886Z,100.0
2022-12-22T03:04:17.509Z,100.0
2022-12-22T03:05:17.033Z,100.0
2022-12-22T03:06:16.541Z,100.0
2022-12-22T03:07:17.037Z,100.0
2022-12-22T03:08:16.521Z,100.0
2022-12-22T03:09:17.047Z,100.0
2022-12-22T03:10:16.562Z,100.0
2022-12-22T03:11:17.061Z,100.0
2022-12-22T03:12:16.792Z,100.0
2022-12-22T03:13:17.347Z,100.0
2022-12-22T03:14:16.866Z,100.0
2022-12-22T03:15:17.365Z,100.0
2022-12-22T03:16:17.025Z,100.0
2022-12-22T03:17:16.554Z,100.0
2022-12-22T03:18:17.057Z,100.0
2022-12-22T03:19:16.551Z,100.0
2022-12-22T03:20:17.097Z,100.0
2022-12-22T03:21:16.631Z,100.0
2022-12-22T03:22:16.831Z,100.0
2022-12-22T03:23:17.453Z,100.0
2022-12-22T03:24:16.924Z,100.0
2022-12-22T03:25:17.425Z,100.0
2022-12-22T03:26:16.940Z,100.0
2022-12-22T03:27:17.419Z,100.0
2022-12-22T03:28:16.930Z,100.0
2022-12-22T03:29:17.444Z,100.0
2022-12-22T03:30:16.973Z,100.0
2022-12-22T03:31:16.551Z,100.0
2022-12-22T03:32:17.051Z,100.0
2022-12-22T03:33:16.579Z,100.0
2022-12-22T03:34:17.068Z,100.0
2022-12-22T03:35:16.594Z,100.0
2022-12-22T03:36:17.102Z,100.0
2022-12-22T03:37:16.603Z,100.0
2022-12-22T03:38:17.076Z,100.0
2022-12-22T03:39:16.588Z,100.0
2022-12-22T03:40:17.086Z,100.0
2022-12-22T03:41:16.575Z,100.0
2022-12-22T03:42:16.674Z,100.0
2022-12-22T03:43:17.186Z,100.0
2022-12-22T03:44:16.708Z,100.0
2022-12-22T03:45:17.216Z,100.0
2022-12-22T03:46:17.004Z,100.0
2022-12-22T03:47:16.849Z,100.0
2022-12-22T03:48:17.418Z,100.0
2022-12-22T03:49:16.918Z,100.0
2022-12-22T03:50:17.416Z,100.0
2022-12-22T03:51:16.907Z,100.0
2022-12-22T03:52:16.526Z,100.0
2022-12-22T03:53:17.023Z,100.0
2022-12-22T03:54:16.524Z,100.0
2022-12-22T03:55:16.996Z,100.0
2022-12-22T03:56:16.512Z,100.0
2022-12-22T03:57:17.005Z,100.0
2022-12-22T03:58:16.503Z,100.0
2022-12-22T03:59:17.028Z,100.0
2022-12-22T04:00:16.537Z,100.0
2022-12-22T04:01:17.244Z,100.0
2022-12-22T04:02:16.855Z,100.0
2022-12-22T04:03:17.741Z,100.0
2022-12-22T04:04:17.319Z,100.0
2022-12-22T04:05:16.837Z,100.0
2022-12-22T04:06:17.368Z,100.0
2022-12-22T04:07:16.857Z,100.0
2022-12-22T04:08:17.361Z,100.0
2022-12-22T04:09:16.856Z,100.0
2022-12-22T04:10:17.345Z,100.0
2022-12-22T04:11:16.892Z,100.0
2022-12-22T04:12:16.995Z,100.0
2022-12-22T04:13:16.512Z,100.0
2022-12-22T04:14:17.111Z,100.0
2022-12-22T04:15:16.621Z,100.0
2022-12-22T04:16:17.222Z,100.0
2022-12-22T04:17:16.721Z,100.0
2022-12-22T04:18:17.235Z,100.0
2022-12-22T04:19:16.767Z,100.0
2022-12-22T04:20:17.286Z,100.0
2022-12-22T04:21:16.811Z,100.0
2022-12-22T04:22:17.261Z,100.0
2022-12-22T04:23:16.765Z,100.0
2022-12-22T04:24:17.254Z,100.0
2022-12-22T04:25:16.760Z,100.0
2022-12-22T04:26:17.252Z,100.0
2022-12-22T04:27:16.749Z,100.0
2022-12-22T04:28:17.361Z,100.0
2022-12-22T04:29:16.890Z,100.0
2022-12-22T04:30:17.408Z,100.0
2022-12-22T04:31:17.048Z,100.0
2022-12-22T04:32:17.640Z,100.0
2022-12-22T04:33:17.172Z,100.0
2022-12-22T04:34:16.700Z,100.0
2022-12-22T04:35:17.195Z,100.0
2022-12-22T04:36:16.699Z,100.0
2022-12-22T04:37:18.175Z,100.0
2022-12-22T04:38:16.691Z,100.0
2022-12-22T04:39:17.210Z,100.0
2022-12-22T04:40:16.708Z,100.0
2022-12-22T04:41:17.217Z,100.0
2022-12-22T04:42:16.706Z,100.0
2022-12-22T04:43:17.218Z,100.0
2022-12-22T04:44:16.742Z,100.0
2022-12-22T04:45:17.291Z,100.0
2022-12-22T04:46:16.905Z,100.0
2022-12-22T04:47:17.451Z,100.0
2022-12-22T04:48:16.972Z,100.0
2022-12-22T04:49:16.468Z,100.0
2022-12-22T04:50:16.987Z,100.0
2022-12-22T04:51:16.544Z,100.0
2022-12-22T04:52:16.593Z,100.0
2022-12-22T04:53:17.098Z,100.0
2022-12-22T04:54:16.594Z,100.0
2022-12-22T04:55:17.119Z,100.0
2022-12-22T04:56:16.627Z,100.0
2022-12-22T04:57:17.158Z,100.0
2022-12-22T04:58:16.660Z,100.0
2022-12-22T04:59:17.141Z,100.0
2022-12-22T05:00:16.706Z,100.0
2022-12-22T05:01:17.489Z,100.0
2022-12-22T05:02:16.889Z,100.0
2022-12-22T05:03:17.535Z,100.0
2022-12-22T05:04:24.051Z,100.0
2022-12-22T05:05:16.623Z,100.0
2022-12-22T05:06:17.141Z,100.0
2022-12-22T05:07:16.673Z,100.0
2022-12-22T05:08:17.175Z,100.0
2022-12-22T05:09:16.683Z,100.0
2022-12-22T05:10:17.182Z,100.0
2022-12-22T05:11:16.674Z,100.0
2022-12-22T05:12:16.728Z,100.0
2022-12-22T05:13:17.237Z,100.0
2022-12-22T05:14:16.720Z,100.0
2022-12-22T05:15:17.251Z,100.0
2022-12-22T05:16:16.881Z,100.0
2022-12-22T05:17:17.389Z,100.0
2022-12-22T05:18:16.884Z,100.0
2022-12-22T05:19:17.389Z,100.0
2022-12-22T05:20:16.923Z,100.0
2022-12-22T05:21:17.467Z,100.0
2022-12-22T05:22:16.873Z,100.0
2022-12-22T05:23:17.385Z,100.0
2022-12-22T05:24:16.885Z,100.0
2022-12-22T05:25:17.404Z,100.0
2022-12-22T05:26:16.905Z,100.0
2022-12-22T05:27:17.387Z,100.0
2022-12-22T05:28:16.869Z,100.0
2022-12-22T05:29:17.354Z,100.0
2022-12-22T05:30:16.843Z,100.0
2022-12-22T05:31:17.504Z,100.0
2022-12-22T05:32:16.684Z,100.0
2022-12-22T05:33:17.207Z,100.0
2022-12-22T05:34:16.715Z,100.0
2022-12-22T05:35:17.226Z,100.0
2022-12-22T05:36:16.720Z,100.0
2022-12-22T05:37:17.226Z,100.0
2022-12-22T05:38:16.724Z,100.0
2022-12-22T05:39:17.232Z,100.0
2022-12-22T05:40:16.723Z,100.0
2022-12-22T05:41:17.204Z,100.0
2022-12-22T05:42:17.104Z,100.0
2022-12-22T05:43:16.611Z,100.0
2022-12-22T05:44:17.121Z,100.0
2022-12-22T05:45:16.631Z,100.0
2022-12-22T05:46:17.250Z,100.0
2022-12-22T05:47:16.784Z,100.0
2022-12-22T05:48:28.476Z,100.0
2022-12-22T05:49:17.324Z,100.0
2022-12-22T05:50:16.866Z,100.0
2022-12-22T05:51:17.374Z,100.0
2022-12-22T05:52:16.662Z,100.0
2022-12-22T05:53:17.166Z,100.0
2022-12-22T05:54:16.695Z,100.0
2022-12-22T05:55:17.247Z,100.0
2022-12-22T05:56:16.760Z,100.0
2022-12-22T05:57:17.303Z,100.0
2022-12-22T05:58:16.826Z,100.0
2022-12-22T05:59:17.351Z,100.0
2022-12-22T06:00:16.862Z,100.0
2022-12-22T06:01:17.336Z,100.0
2022-12-22T06:02:17.390Z,100.0
2022-12-22T06:03:17.281Z,100.0
2022-12-22T06:04:17.107Z,100.0
2022-12-22T06:05:16.684Z,99.9
2022-12-22T06:06:17.199Z,100.0
2022-12-22T06:07:16.719Z,100.0
2022-12-22T06:08:17.222Z,100.0
2022-12-22T06:09:16.761Z,100.0
2022-12-22T06:10:17.327Z,100.0
2022-12-22T06:11:16.847Z,99.9
2022-12-22T06:12:17.375Z,99.9
2022-12-22T06:13:16.904Z,99.9
2022-12-22T06:14:17.430Z,99.6
2022-12-22T06:15:16.950Z,99.6
2022-12-22T06:16:17.610Z,99.7
2022-12-22T06:17:17.157Z,99.7
2022-12-22T06:18:16.688Z,99.8
2022-12-22T06:19:17.307Z,99.8
2022-12-22T06:20:16.828Z,99.8
2022-12-22T06:21:17.312Z,99.9
2022-12-22T06:22:16.827Z,99.8
2022-12-22T06:23:17.351Z,99.7
2022-12-22T06:24:16.883Z,99.8
2022-12-22T06:25:19.197Z,99.8
2022-12-22T06:26:16.705Z,99.8
2022-12-22T06:27:17.233Z,99.8
2022-12-22T06:28:16.733Z,99.7
2022-12-22T06:29:17.254Z,99.6
2022-12-22T06:30:16.800Z,99.6
2022-12-22T06:31:17.529Z,99.5
2022-12-22T06:32:17.153Z,99.6
2022-12-22T06:33:16.661Z,99.7
2022-12-22T06:34:17.176Z,99.6
2022-12-22T06:35:16.709Z,99.8
2022-12-22T06:36:17.203Z,99.9
2022-12-22T06:37:16.689Z,99.9
2022-12-22T06:38:17.210Z,99.8
2022-12-22T06:39:16.717Z,99.8
2022-12-22T06:40:17.238Z,99.9
2022-12-22T06:41:16.749Z,99.8
2022-12-22T06:42:17.345Z,99.9
2022-12-22T06:43:16.836Z,99.9
2022-12-22T06:44:17.326Z,100.0
2022-12-22T06:45:16.850Z,100.0
2022-12-22T06:46:17.453Z,100.0
2022-12-22T06:47:16.973Z,100.0
2022-12-22T06:48:16.486Z,100.0
2022-12-22T06:49:16.993Z,100.0
2022-12-22T06:50:16.483Z,100.0
2022-12-22T06:51:16.961Z,100.0
2022-12-22T06:52:16.642Z,100.0
2022-12-22T06:53:17.151Z,100.0
2022-12-22T06:54:25.788Z,100.0
2022-12-22T06:55:16.697Z,100.0
2022-12-22T06:56:17.196Z,100.0
2022-12-22T06:57:16.715Z,100.0
2022-12-22T06:58:17.246Z,100.0
2022-12-22T06:59:16.746Z,100.0
2022-12-22T07:00:17.310Z,100.0
2022-12-22T07:01:16.955Z,100.0
2022-12-22T07:02:17.889Z,100.0
2022-12-22T07:03:17.075Z,100.0
2022-12-22T07:04:16.731Z,100.0
2022-12-22T07:05:17.285Z,100.0
2022-12-22T07:06:16.846Z,100.0
2022-12-22T07:07:17.362Z,100.0
2022-12-22T07:08:16.874Z,100.0
2022-12-22T07:09:17.378Z,100.0
2022-12-22T07:10:16.892Z,100.0
2022-12-22T07:11:17.404Z,100.0
2022-12-22T07:12:17.092Z,100.0
2022-12-22T07:13:16.593Z,100.0
2022-12-22T07:14:17.102Z,100.0
2022-12-22T07:15:16.590Z,100.0
2022-12-22T07:16:17.244Z,100.0
2022-12-22T07:17:16.757Z,100.0
2022-12-22T07:18:17.274Z,100.0
2022-12-22T07:19:16.796Z,100.0
2022-12-22T07:20:17.315Z,100.0
2022-12-22T07:21:16.804Z,100.0
2022-12-22T07:22:17.459Z,100.0
2022-12-22T07:23:16.948Z,100.0
2022-12-22T07:24:17.450Z,100.0
2022-12-22T07:25:16.937Z,100.0
2022-12-22T07:26:17.493Z,100.0
2022-12-22T07:27:17.015Z,100.0
2022-12-22T07:28:21.540Z,100.0
2022-12-22T07:29:17.092Z,100.0
2022-12-22T07:30:16.565Z,100.0
2022-12-22T07:31:17.187Z,100.0
2022-12-22T07:32:16.777Z,100.0
2022-12-22T07:33:17.273Z,100.0
2022-12-22T07:34:16.769Z,100.0
2022-12-22T07:35:17.294Z,100.0
2022-12-22T07:36:16.788Z,100.0
2022-12-22T07:37:17.279Z,100.0
2022-12-22T07:38:16.775Z,100.0
2022-12-22T07:39:17.251Z,100.0
2022-12-22T07:40:16.764Z,100.0
2022-12-22T07:41:17.282Z,100.0
2022-12-22T07:42:17.035Z,100.0
2022-12-22T07:43:16.531Z,100.0
2022-12-22T07:44:17.017Z,100.0
2022-12-22T07:45:16.526Z,100.0
2022-12-22T07:46:17.110Z,100.0
2022-12-22T07:47:16.627Z,100.0
2022-12-22T07:48:17.139Z,100.0
2022-12-22T07:49:16.677Z,100.0
2022-12-22T07:50:17.180Z,100.0
2022-12-22T07:51:16.664Z,100.0
2022-12-22T07:52:17.169Z,100.0
2022-12-22T07:53:16.670Z,100.0
2022-12-22T07:54:17.204Z,100.0
2022-12-22T07:55:16.751Z,100.0
2022-12-22T07:56:17.234Z,100.0
2022-12-22T07:57:16.726Z,100.0
2022-12-22T07:58:17.240Z,100.0
2022-12-22T07:59:16.747Z,100.0
2022-12-22T08:00:17.267Z,100.0
2022-12-22T08:01:16.764Z,100.0
2022-12-22T08:02:16.791Z,100.0
2022-12-22T08:03:17.691Z,100.0
2022-12-22T08:04:17.461Z,100.0
2022-12-22T08:05:17.131Z,100.0
2022-12-22T08:06:16.704Z,100.0
2022-12-22T08:07:17.206Z,100.0
2022-12-22T08:08:16.736Z,100.0
2022-12-22T08:09:17.319Z,100.0
2022-12-22T08:10:16.812Z,100.0
2022-12-22T08:11:17.280Z,100.0
2022-12-22T08:12:16.849Z,100.0
2022-12-22T08:13:17.474Z,100.0
2022-12-22T08:14:17.208Z,100.0
2022-12-22T08:15:16.715Z,100.0
2022-12-22T08:16:17.389Z,99.8
2022-12-22T08:17:16.910Z,100.0
2022-12-22T08:18:17.425Z,99.9
2022-12-22T08:19:16.958Z,99.8
2022-12-22T08:20:17.491Z,99.8
2022-12-22T08:21:16.992Z,99.8
2022-12-22T08:22:17.009Z,99.7
2022-12-22T08:23:16.497Z,99.6
2022-12-22T08:24:17.032Z,99.5
2022-12-22T08:25:16.541Z,99.6
2022-12-22T08:26:17.056Z,99.5
2022-12-22T08:27:26.087Z,99.5
2022-12-22T08:28:16.867Z,99.5
2022-12-22T08:29:17.388Z,99.5
2022-12-22T08:30:16.909Z,99.5
2022-12-22T08:31:17.528Z,99.5
2022-12-22T08:32:16.741Z,99.5
2022-12-22T08:33:17.236Z,99.5
2022-12-22T08:34:16.752Z,99.5
2022-12-22T08:35:17.271Z,99.5
2022-12-22T08:36:16.778Z,99.5
2022-12-22T08:37:17.274Z,99.5
2022-12-22T08:38:16.829Z,99.5
2022-12-22T08:39:17.355Z,99.5
2022-12-22T08:40:16.891Z,99.5
2022-12-22T08:41:17.441Z,99.4
2022-12-22T08:42:17.037Z,99.4
2022-12-22T08:43:16.554Z,99.3
2022-12-22T08:44:17.074Z,99.3
2022-12-22T08:45:16.601Z,99.3
2022-12-22T08:46:17.304Z,99.2
2022-12-22T08:47:17.675Z,99.2
2022-12-22T08:48:17.327Z,99.2
2022-12-22T08:49:16.861Z,99.3
2022-12-22T08:50:17.378Z,99.3
2022-12-22T08:51:16.860Z,99.3
2022-12-22T08:52:19.440Z,99.3
2022-12-22T08:54:02.932Z,99.3
2022-12-22T08:54:16.623Z,99.3
2022-12-22T08:55:17.139Z,99.3
2022-12-22T08:56:16.649Z,99.3
2022-12-22T08:57:17.174Z,99.2
2022-12-22T08:58:16.669Z,99.2
2022-12-22T08:59:17.211Z,99.2
2022-12-22T09:00:16.790Z,99.2
2022-12-22T09:01:17.514Z,99.2
2022-12-22T09:02:17.481Z,99.0
2022-12-22T09:03:17.188Z,99.0
2022-12-22T09:04:16.707Z,99.0
2022-12-22T09:05:17.228Z,99.0
2022-12-22T09:06:16.773Z,98.9
2022-12-22T09:07:17.309Z,98.8
2022-12-22T09:08:16.830Z,98.8
2022-12-22T09:09:17.333Z,98.5
2022-12-22T09:10:16.835Z,98.5
2022-12-22T09:11:17.332Z,98.5
2022-12-22T09:12:16.932Z,98.6
2022-12-22T09:13:17.475Z,98.7
2022-12-22T09:14:16.997Z,98.8
2022-12-22T09:15:16.500Z,98.7
2022-12-22T09:16:17.128Z,98.6
2022-12-22T09:17:16.643Z,98.7
2022-12-22T09:18:17.146Z,98.7
2022-12-22T09:19:16.636Z,98.7
2022-12-22T09:20:17.142Z,98.6
2022-12-22T09:21:16.653Z,98.6
2022-12-22T09:22:28.291Z,98.7
2022-12-22T09:23:17.331Z,98.7
2022-12-22T09:24:16.859Z,98.7
2022-12-22T09:25:17.388Z,98.6
2022-12-22T09:26:16.895Z,98.5
2022-12-22T09:27:17.367Z,98.5
2022-12-22T09:28:16.874Z,98.5
2022-12-22T09:29:17.400Z,98.4
2022-12-22T09:30:16.901Z,98.3
2022-12-22T09:31:17.531Z,98.2
2022-12-22T09:32:17.041Z,98.2
2022-12-22T09:33:16.578Z,98.3
2022-12-22T09:34:18.950Z,98.2
2022-12-22T09:35:16.584Z,98.2
2022-12-22T09:36:17.063Z,98.1
2022-12-22T09:37:16.611Z,98.0
2022-12-22T09:38:17.103Z,97.8
2022-12-22T09:39:16.583Z,97.8
2022-12-22T09:40:17.082Z,97.8
2022-12-22T09:41:16.627Z,97.7
2022-12-22T09:42:17.124Z,97.8
2022-12-22T09:43:16.626Z,97.8
2022-12-22T09:44:17.132Z,97.8
2022-12-22T09:45:17.623Z,97.8
2022-12-22T09:46:17.266Z,97.6
2022-12-22T09:47:16.805Z,97.5
2022-12-22T09:48:17.342Z,97.5
2022-12-22T09:49:16.866Z,97.3
2022-12-22T09:50:17.371Z,97.2
2022-12-22T09:51:26.943Z,97.1
2022-12-22T09:52:17.455Z,97.2
2022-12-22T09:53:16.958Z,97.2
2022-12-22T09:54:17.471Z,97.2
2022-12-22T09:55:16.988Z,97.2
2022-12-22T09:56:16.468Z,97.3
2022-12-22T09:57:17.208Z,97.3
2022-12-22T09:58:26.145Z,97.3
2022-12-22T09:59:17.056Z,97.3
2022-12-22T10:00:16.581Z,97.3
2022-12-22T10:01:17.196Z,97.2
2022-12-22T10:02:16.691Z,97.2
2022-12-22T10:03:17.413Z,97.0
2022-12-22T10:04:16.919Z,97.0
2022-12-22T10:05:17.430Z,97.0
2022-12-22T10:06:16.928Z,97.2
2022-12-22T10:07:17.417Z,97.0
2022-12-22T10:08:16.923Z,97.1
2022-12-22T10:09:49.384Z,97.2
2022-12-22T10:10:16.972Z,97.2
2022-12-22T10:11:16.572Z,97.2
2022-12-22T10:12:16.959Z,97.3
2022-12-22T10:13:17.477Z,97.2
2022-12-22T10:14:16.994Z,97.2
2022-12-22T10:15:22.328Z,97.2
2022-12-22T10:16:16.961Z,97.2
2022-12-22T10:17:16.522Z,97.2
2022-12-22T10:18:17.005Z,97.1
2022-12-22T10:19:18.333Z,97.0
2022-12-22T10:20:16.908Z,96.7
2022-12-22T10:21:17.405Z,96.8
2022-12-22T10:22:16.782Z,96.6
2022-12-22T10:23:17.265Z,96.6
2022-12-22T10:24:16.741Z,96.0
2022-12-22T10:25:17.242Z,96.2
2022-12-22T10:26:30.056Z,96.2
2022-12-22T10:27:16.867Z,96.2
2022-12-22T10:28:17.401Z,96.2
2022-12-22T10:29:16.924Z,96.1
2022-12-22T10:30:17.651Z,96.0
2022-12-22T10:31:17.210Z,95.8
2022-12-22T10:32:17.588Z,95.8
2022-12-22T10:33:17.128Z,96.0
2022-12-22T10:34:16.664Z,96.0
2022-12-22T10:35:17.162Z,96.0
2022-12-22T10:36:16.925Z,96.0
2022-12-22T10:37:16.542Z,96.1
2022-12-22T10:38:22.177Z,96.0
2022-12-22T10:39:16.793Z,96.2
2022-12-22T10:40:17.479Z,95.8
2022-12-22T10:41:17.049Z,95.8
2022-12-22T10:42:17.355Z,96.2
2022-12-22T10:43:16.854Z,96.2
2022-12-22T10:44:17.426Z,95.9
2022-12-22T10:45:16.916Z,95.8
2022-12-22T10:46:17.569Z,96.2
2022-12-22T10:47:18.217Z,96.2
2022-12-22T10:48:16.774Z,95.7
2022-12-22T10:49:17.265Z,95.8
2022-12-22T10:50:16.996Z,95.9
2022-12-22T10:51:16.577Z,96.3
2022-12-22T10:52:16.677Z,96.1
2022-12-22T10:53:17.183Z,96.1
2022-12-22T10:54:16.691Z,95.8
2022-12-22T10:55:17.215Z,95.5
2022-12-22T10:56:16.715Z,96.1
2022-12-22T10:57:17.253Z,96.0
2022-12-22T10:58:16.819Z,96.1
2022-12-22T10:59:17.373Z,95.9
2022-12-22T11:00:16.932Z,95.8
2022-12-22T11:01:17.534Z,95.3
2022-12-22T11:02:17.303Z,95.2
2022-12-22T11:03:24.790Z,94.7
2022-12-22T11:04:17.386Z,94.4
2022-12-22T11:05:16.861Z,94.0
2022-12-22T11:06:17.362Z,94.2
2022-12-22T11:07:16.857Z,93.8
2022-12-22T11:08:17.402Z,92.9
2022-12-22T11:09:34.069Z,92.2
2022-12-22T11:10:17.229Z,91.0
2022-12-22T11:11:16.743Z,91.2
2022-12-22T11:12:17.307Z,90.8
2022-12-22T11:13:16.858Z,90.9
2022-12-22T11:14:17.353Z,91.1
2022-12-22T11:15:24.996Z,91.3
2022-12-22T11:16:16.685Z,91.2
2022-12-22T11:17:17.448Z,91.2
2022-12-22T11:18:16.987Z,91.0
2022-12-22T11:19:16.509Z,91.2
2022-12-22T11:20:17.037Z,90.9
2022-12-22T11:21:24.465Z,90.9
2022-12-22T11:22:17.287Z,91.0
2022-12-22T11:23:16.825Z,91.2
2022-12-22T11:24:17.335Z,90.8
2022-12-22T11:25:16.871Z,90.8
2022-12-22T11:26:17.428Z,91.1
2022-12-22T11:27:16.951Z,90.4
2022-12-22T11:28:17.538Z,90.6
2022-12-22T11:29:17.097Z,90.7
2022-12-22T11:30:16.603Z,90.8
2022-12-22T11:31:17.361Z,91.2
2022-12-22T11:32:16.735Z,91.7
2022-12-22T11:33:17.225Z,91.8
2022-12-22T11:34:21.782Z,90.8
2022-12-22T11:35:17.366Z,90.7
2022-12-22T11:36:16.869Z,90.5
2022-12-22T11:37:17.391Z,90.9
2022-12-22T11:38:16.945Z,90.9
2022-12-22T11:39:17.462Z,91.3
2022-12-22T11:40:16.994Z,91.4
2022-12-22T11:41:16.513Z,91.7
2022-12-22T11:42:16.850Z,91.7
2022-12-22T11:43:17.394Z,91.5
2022-12-22T11:44:16.891Z,92.0
2022-12-22T11:45:17.392Z,92.0
2022-12-22T11:46:16.950Z,92.5
2022-12-22T11:47:17.492Z,92.6
2022-12-22T11:48:16.989Z,92.6
2022-12-22T11:49:16.510Z,92.7
2022-12-22T11:51:00.556Z,92.9
2022-12-22T11:51:27.070Z,93.0
2022-12-22T11:52:17.173Z,93.2
2022-12-22T11:53:16.667Z,93.4
2022-12-22T11:54:17.232Z,93.4
2022-12-22T11:55:16.819Z,93.7
2022-12-22T11:56:17.382Z,93.8
2022-12-22T11:57:16.938Z,93.9
2022-12-22T11:58:17.483Z,94.1
2022-12-22T11:59:16.998Z,93.8
2022-12-22T12:00:16.545Z,93.9
2022-12-22T12:01:26.891Z,93.9
2022-12-22T12:02:17.045Z,94.0
2022-12-22T12:03:16.922Z,94.3
2022-12-22T12:04:16.847Z,94.5
2022-12-22T12:05:17.423Z,94.7
2022-12-22T12:06:16.962Z,94.8
2022-12-22T12:07:25.824Z,94.8
2022-12-22T12:08:16.525Z,94.9
2022-12-22T12:09:17.063Z,95.3
2022-12-22T12:10:16.558Z,95.5
2022-12-22T12:11:17.062Z,95.7
2022-12-22T12:12:16.600Z,95.9
2022-12-22T12:13:28.830Z,96.2
2022-12-22T12:14:16.613Z,96.2
2022-12-22T12:15:17.188Z,96.2
2022-12-22T12:16:16.881Z,96.7
2022-12-22T12:17:17.494Z,96.8
2022-12-22T12:18:17.055Z,97.0
2022-12-22T12:19:26.450Z,97.2
2022-12-22T12:20:17.386Z,97.3
2022-12-22T12:21:16.923Z,97.5
2022-12-22T12:22:16.815Z,97.8
2022-12-22T12:23:17.384Z,98.1
2022-12-22T12:24:16.889Z,98.7
2022-12-22T12:25:25.924Z,98.8
2022-12-22T12:26:16.711Z,98.8
2022-12-22T12:27:17.403Z,99.0
2022-12-22T12:28:16.967Z,99.2
2022-12-22T12:29:16.464Z,99.2
2022-12-22T12:30:37.809Z,99.1
2022-12-22T12:31:26.040Z,99.1
2022-12-22T12:32:16.791Z,99.1
2022-12-22T12:33:17.284Z,99.0
2022-12-22T12:34:16.774Z,99.1
2022-12-22T12:35:17.269Z,99.2
2022-12-22T12:36:16.770Z,99.2
2022-12-22T12:37:24.311Z,99.2
2022-12-22T12:39:05.461Z,99.3
2022-12-22T12:39:17.175Z,99.4
2022-12-22T12:40:16.689Z,99.5
2022-12-22T12:41:17.234Z,99.5
2022-12-22T12:42:16.964Z,99.4
2022-12-22T12:43:17.510Z,99.5
2022-12-22T12:44:17.069Z,99.5
2022-12-22T12:45:16.567Z,99.5
2022-12-22T12:46:17.265Z,99.6
2022-12-22T12:47:16.819Z,99.5
2022-12-22T12:48:17.310Z,99.5
2022-12-22T12:49:26.398Z,99.5
2022-12-22T12:50:17.069Z,99.5
2022-12-22T12:51:16.538Z,99.6
2022-12-22T12:52:17.275Z,99.6
2022-12-22T12:53:16.823Z,99.7
2022-12-22T12:54:17.284Z,99.5
2022-12-22T12:55:24.328Z,99.5
2022-12-22T12:56:17.151Z,99.5
2022-12-22T12:57:16.653Z,99.5
2022-12-22T12:58:17.164Z,99.5
2022-12-22T12:59:16.687Z,99.3
2022-12-22T13:00:17.185Z,99.3
2022-12-22T13:01:16.815Z,99.3
2022-12-22T13:02:17.752Z,99.3
2022-12-22T13:04:17.075Z,99.2